Time;durP1;ratioP1;P1;durP2;ratioP2;P2;SDS_P1;SDS_P2;PMS_P1;PMS_P2;Temp;Humidity;BMP_temperature;BMP_pressure;BME280_temperature;BME280_humidity;BME280_pressure;Samples;Min_cycle;Max_cycle;Signal;HPM_P1;HPM_P2
2023/07/18 00:00:38;;;;;;;7.07;4.63;;;13.70;99.90;;;;;;4902178;29;20176;-33
2023/07/18 00:03:05;;;;;;;6.43;4.82;;;13.70;99.90;;;;;;4914764;29;20549;-33
2023/07/18 00:05:31;;;;;;;8.02;4.88;;;13.70;99.90;;;;;;4917784;29;20043;-33
2023/07/18 00:07:57;;;;;;;9.35;4.55;;;13.70;99.90;;;;;;4918171;29;20131;-33
2023/07/18 00:10:23;;;;;;;6.30;4.53;;;13.60;99.90;;;;;;4924139;29;20602;-33
2023/07/18 00:12:49;;;;;;;7.93;4.90;;;13.60;99.90;;;;;;4912483;29;20058;-33
2023/07/18 00:15:16;;;;;;;8.93;5.00;;;13.60;99.90;;;;;;4917890;29;20040;-33
2023/07/18 00:17:43;;;;;;;7.68;5.00;;;13.60;99.90;;;;;;4917849;29;20050;-32
2023/07/18 00:20:12;;;;;;;7.18;5.20;;;13.50;99.90;;;;;;4913651;29;20051;-33
2023/07/18 00:22:41;;;;;;;8.82;5.18;;;13.50;99.90;;;;;;4898506;29;20063;-32
2023/07/18 00:25:13;;;;;;;7.65;4.97;;;13.40;99.90;;;;;;4891600;29;20044;-33
2023/07/18 00:27:39;;;;;;;5.85;4.45;;;13.40;99.90;;;;;;4912466;29;20493;-33
2023/07/18 00:30:12;;;;;;;6.82;4.95;;;13.40;99.90;;;;;;4917667;29;20044;-32
2023/07/18 00:32:42;;;;;;;8.68;4.90;;;13.30;99.90;;;;;;4916953;29;20493;-33
2023/07/18 00:35:08;;;;;;;7.78;4.82;;;13.30;99.90;;;;;;4917009;29;20043;-33
2023/07/18 00:37:35;;;;;;;8.40;5.20;;;13.30;99.90;;;;;;4921331;29;20083;-33
2023/07/18 00:40:02;;;;;;;8.15;5.07;;;13.30;99.90;;;;;;4917559;29;20115;-33
2023/07/18 00:42:27;;;;;;;7.32;4.95;;;13.20;99.90;;;;;;4918677;29;20048;-33
2023/07/18 00:44:53;;;;;;;6.78;5.00;;;13.20;99.90;;;;;;4921113;29;20573;-33
2023/07/18 00:47:22;;;;;;;9.48;5.05;;;13.20;99.90;;;;;;4915449;29;20044;-33
2023/07/18 00:49:48;;;;;;;9.90;5.63;;;13.20;99.90;;;;;;4899192;29;20046;-33
2023/07/18 00:52:15;;;;;;;6.80;4.80;;;13.20;99.90;;;;;;4918926;29;20044;-33
2023/07/18 00:54:43;;;;;;;10.43;4.93;;;13.20;99.90;;;;;;4915376;29;20047;-33
2023/07/18 00:57:09;;;;;;;11.35;5.25;;;13.30;99.90;;;;;;4912794;29;20040;-33
2023/07/18 00:59:37;;;;;;;8.40;5.03;;;13.30;99.90;;;;;;4910354;29;20044;-33
2023/07/18 01:02:03;;;;;;;7.93;5.22;;;13.30;99.90;;;;;;4921190;29;20115;-33
2023/07/18 01:04:28;;;;;;;10.50;5.72;;;13.30;99.90;;;;;;4909129;29;20219;-32
2023/07/18 01:06:55;;;;;;;7.80;5.05;;;13.30;99.90;;;;;;4902808;29;20033;-33
2023/07/18 01:09:21;;;;;;;11.35;5.00;;;13.30;99.90;;;;;;4912194;29;20036;-33
2023/07/18 01:11:46;;;;;;;7.93;5.20;;;13.40;99.90;;;;;;4918109;29;20039;-33
2023/07/18 01:14:12;;;;;;;8.73;5.07;;;13.40;99.90;;;;;;4912424;29;20043;-33
2023/07/18 01:16:38;;;;;;;7.18;4.80;;;13.30;99.90;;;;;;4914904;29;20540;-33
2023/07/18 01:19:04;;;;;;;7.05;5.05;;;13.40;99.90;;;;;;4912910;29;20075;-32
2023/07/18 01:21:30;;;;;;;10.02;5.13;;;13.30;99.90;;;;;;4914330;29;20119;-32
2023/07/18 01:23:56;;;;;;;10.90;5.18;;;13.30;99.90;;;;;;4905537;29;20099;-32
2023/07/18 01:26:21;;;;;;;9.27;5.10;;;13.30;99.90;;;;;;4903713;29;20071;-33
2023/07/18 01:28:47;;;;;;;12.73;5.70;;;13.30;99.90;;;;;;4885083;29;20039;-33
2023/07/18 01:31:13;;;;;;;8.73;5.45;;;13.30;99.90;;;;;;4895408;29;20040;-33
2023/07/18 01:33:38;;;;;;;8.90;5.00;;;13.30;99.90;;;;;;4902499;29;20518;-33
2023/07/18 01:36:06;;;;;;;8.13;5.22;;;13.30;99.90;;;;;;4905868;29;20410;-33
2023/07/18 01:38:32;;;;;;;10.70;5.40;;;13.30;99.90;;;;;;4911851;29;20108;-33
2023/07/18 01:41:01;;;;;;;7.82;5.18;;;13.30;99.90;;;;;;4917844;29;20433;-33
2023/07/18 01:43:26;;;;;;;11.43;6.18;;;13.30;99.90;;;;;;4889125;29;20052;-33
2023/07/18 01:45:58;;;;;;;9.85;6.00;;;13.30;99.90;;;;;;4917074;29;20394;-36
2023/07/18 01:48:23;;;;;;;9.10;5.03;;;13.40;99.90;;;;;;4911617;29;20091;-33
2023/07/18 01:50:49;;;;;;;8.80;5.78;;;13.30;99.90;;;;;;4900781;29;20395;-33
2023/07/18 01:53:15;;;;;;;7.50;5.38;;;13.30;99.90;;;;;;4894843;29;20133;-33
2023/07/18 01:55:41;;;;;;;9.07;5.45;;;13.30;99.90;;;;;;4895900;29;20043;-33
2023/07/18 01:58:07;;;;;;;9.43;5.18;;;13.30;99.90;;;;;;4915675;29;20536;-33
2023/07/18 02:00:35;;;;;;;10.60;5.53;;;13.30;99.90;;;;;;4905124;29;20083;-32
2023/07/18 02:03:01;;;;;;;8.73;5.55;;;13.30;99.90;;;;;;4887976;29;20124;-33
2023/07/18 02:05:30;;;;;;;9.15;5.53;;;13.30;99.90;;;;;;4911223;29;20123;-32
2023/07/18 02:07:56;;;;;;;12.93;5.68;;;13.30;99.90;;;;;;4891474;29;20039;-33
2023/07/18 02:10:22;;;;;;;9.27;5.03;;;13.30;99.90;;;;;;4914353;29;20051;-33
2023/07/18 02:12:50;;;;;;;8.70;5.30;;;13.30;99.90;;;;;;4915375;29;20040;-33
2023/07/18 02:15:16;;;;;;;11.02;5.45;;;13.20;99.90;;;;;;4913498;29;20439;-33
2023/07/18 02:17:42;;;;;;;9.25;5.28;;;13.20;99.90;;;;;;4915457;29;20028;-33
2023/07/18 02:20:11;;;;;;;11.70;4.95;;;13.20;99.90;;;;;;4902975;29;20040;-33
2023/07/18 02:22:40;;;;;;;9.55;4.95;;;13.10;99.90;;;;;;4897715;29;20091;-32
2023/07/18 02:25:06;;;;;;;7.93;5.20;;;13.10;99.90;;;;;;4915714;29;20029;-33
2023/07/18 02:27:39;;;;;;;8.20;5.57;;;13.10;99.90;;;;;;4915178;29;20372;-33
2023/07/18 02:30:09;;;;;;;9.80;5.43;;;13.10;99.90;;;;;;4914907;29;20032;-33
2023/07/18 02:32:35;;;;;;;10.98;4.78;;;13.10;99.90;;;;;;4914992;29;20043;-33
2023/07/18 02:35:01;;;;;;;11.20;5.03;;;13.10;99.90;;;;;;4905311;29;20401;-33
2023/07/18 02:37:28;;;;;;;8.55;5.22;;;13.10;99.90;;;;;;4911479;29;20639;-33
2023/07/18 02:39:54;;;;;;;8.30;5.22;;;13.10;99.90;;;;;;4914918;29;20079;-33
2023/07/18 02:42:20;;;;;;;10.55;5.22;;;13.10;99.90;;;;;;4914471;29;20089;-33
2023/07/18 02:44:47;;;;;;;8.07;4.75;;;13.10;99.90;;;;;;4890154;29;20051;-33
2023/07/18 02:47:13;;;;;;;7.50;5.80;;;13.10;99.90;;;;;;4914928;29;20063;-33
2023/07/18 02:49:40;;;;;;;9.25;5.07;;;13.10;99.90;;;;;;4889193;29;20040;-33
2023/07/18 02:52:06;;;;;;;9.15;4.90;;;13.00;99.90;;;;;;4914288;29;20071;-33
2023/07/18 02:54:32;;;;;;;9.13;5.70;;;13.00;99.90;;;;;;4908438;29;20048;-32
2023/07/18 02:56:58;;;;;;;8.38;5.45;;;13.00;99.90;;;;;;4917632;29;20414;-34
2023/07/18 02:59:25;;;;;;;6.78;4.90;;;13.00;99.90;;;;;;4924729;29;20034;-34
2023/07/18 03:01:54;;;;;;;9.50;5.40;;;13.00;99.90;;;;;;4916933;29;20119;-33
2023/07/18 03:04:21;;;;;;;11.07;5.28;;;13.00;99.90;;;;;;4923182;29;20047;-32
2023/07/18 03:06:47;;;;;;;8.05;5.15;;;13.00;99.90;;;;;;4897189;29;20045;-33
2023/07/18 03:09:17;;;;;;;9.60;5.82;;;13.00;99.90;;;;;;4914188;29;20485;-33
2023/07/18 03:11:43;;;;;;;11.60;4.78;;;13.00;99.90;;;;;;4904866;29;20040;-33
2023/07/18 03:14:11;;;;;;;10.05;5.45;;;13.00;99.90;;;;;;4901163;29;20536;-33
2023/07/18 03:16:39;;;;;;;8.07;4.82;;;13.00;99.90;;;;;;4914967;29;20048;-34
2023/07/18 03:19:06;;;;;;;8.18;4.40;;;13.00;99.90;;;;;;4915830;29;20040;-33
2023/07/18 03:21:32;;;;;;;11.65;5.45;;;13.00;99.90;;;;;;4895439;29;20056;-33
2023/07/18 03:23:58;;;;;;;8.27;4.78;;;13.00;99.90;;;;;;4908232;29;20051;-33
2023/07/18 03:26:24;;;;;;;7.57;4.90;;;13.00;99.90;;;;;;4913810;29;20490;-33
2023/07/18 03:28:49;;;;;;;7.10;4.85;;;13.00;99.90;;;;;;4908075;29;20050;-33
2023/07/18 03:31:18;;;;;;;8.80;4.75;;;13.00;99.90;;;;;;4912041;29;20513;-33
2023/07/18 03:33:44;;;;;;;6.95;5.03;;;13.00;99.90;;;;;;4920591;29;20040;-33
2023/07/18 03:36:09;;;;;;;9.20;5.07;;;13.00;99.90;;;;;;4913692;29;20047;-33
2023/07/18 03:38:35;;;;;;;10.85;5.40;;;13.00;99.90;;;;;;4911653;29;20119;-33
2023/07/18 03:41:01;;;;;;;11.70;5.82;;;13.00;99.90;;;;;;4904844;29;20498;-33
2023/07/18 03:43:27;;;;;;;8.93;5.40;;;13.00;99.90;;;;;;4915768;29;20388;-33
2023/07/18 03:45:53;;;;;;;11.02;5.25;;;13.00;99.90;;;;;;4913277;29;20040;-33
2023/07/18 03:48:18;;;;;;;12.60;5.57;;;13.00;99.90;;;;;;4896761;29;20090;-33
2023/07/18 03:50:45;;;;;;;13.70;5.45;;;13.00;99.90;;;;;;4913497;29;20052;-33
2023/07/18 03:53:15;;;;;;;7.68;5.00;;;13.00;99.90;;;;;;4918514;29;20458;-33
2023/07/18 03:55:41;;;;;;;9.00;5.18;;;13.00;99.90;;;;;;4912377;29;20040;-33
2023/07/18 03:58:06;;;;;;;8.73;5.25;;;13.00;99.90;;;;;;4913953;29;20054;-33
2023/07/18 04:00:32;;;;;;;8.48;5.13;;;13.00;99.90;;;;;;4919892;29;20044;-33
2023/07/18 04:02:58;;;;;;;8.90;5.00;;;13.00;99.90;;;;;;4898456;29;20047;-33
2023/07/18 04:05:24;;;;;;;9.48;5.05;;;13.00;99.90;;;;;;4908270;29;20120;-33
2023/07/18 04:07:51;;;;;;;9.40;5.38;;;13.00;99.90;;;;;;4913096;29;20040;-33
2023/07/18 04:10:17;;;;;;;9.07;4.93;;;13.10;99.90;;;;;;4914269;29;20078;-32
2023/07/18 04:12:43;;;;;;;10.23;5.68;;;13.00;99.90;;;;;;4899005;29;20068;-34
2023/07/18 04:15:11;;;;;;;9.07;5.07;;;13.10;99.90;;;;;;4917366;29;20036;-33
2023/07/18 04:17:38;;;;;;;10.02;5.22;;;13.10;99.90;;;;;;4892471;29;20099;-33
2023/07/18 04:20:05;;;;;;;11.15;4.30;;;13.00;99.90;;;;;;4913514;29;20044;-33
2023/07/18 04:22:32;;;;;;;7.40;4.50;;;13.10;99.90;;;;;;4913385;29;20413;-33
2023/07/18 04:24:57;;;;;;;11.82;5.32;;;13.10;99.90;;;;;;4916814;29;20040;-33
2023/07/18 04:27:26;;;;;;;12.93;5.40;;;13.20;99.90;;;;;;4912900;29;20036;-33
2023/07/18 04:29:53;;;;;;;8.80;4.75;;;13.20;99.90;;;;;;4922966;29;20103;-33
2023/07/18 04:32:19;;;;;;;7.93;5.18;;;13.30;99.90;;;;;;4912873;29;20044;-33
2023/07/18 04:34:47;;;;;;;10.80;4.63;;;13.40;99.90;;;;;;4920922;29;20036;-33
2023/07/18 04:37:13;;;;;;;7.00;4.65;;;13.40;99.90;;;;;;4912460;29;20040;-33
2023/07/18 04:39:38;;;;;;;9.45;5.07;;;13.50;99.90;;;;;;4912466;29;20155;-32
2023/07/18 04:42:05;;;;;;;12.02;4.45;;;13.50;99.90;;;;;;4916159;29;20028;-33
2023/07/18 04:44:31;;;;;;;10.07;5.00;;;13.60;99.90;;;;;;4918242;29;20054;-33
2023/07/18 04:46:57;;;;;;;14.57;4.50;;;13.70;99.90;;;;;;4911406;29;20123;-33
2023/07/18 04:49:24;;;;;;;7.97;4.40;;;13.70;99.90;;;;;;4913728;29;20036;-33
2023/07/18 04:51:51;;;;;;;8.90;4.55;;;13.80;99.90;;;;;;4914325;29;20048;-33
2023/07/18 04:54:17;;;;;;;10.27;4.30;;;13.80;99.90;;;;;;4917919;29;20040;-33
2023/07/18 04:56:43;;;;;;;9.95;4.35;;;13.80;99.90;;;;;;4911795;29;20205;-33
2023/07/18 04:59:09;;;;;;;10.35;4.22;;;13.80;99.90;;;;;;4921850;29;20071;-33
2023/07/18 05:01:36;;;;;;;11.27;4.65;;;13.90;99.90;;;;;;4915934;29;20051;-33
2023/07/18 05:04:02;;;;;;;9.85;4.53;;;13.90;99.90;;;;;;4911373;29;20443;-33
2023/07/18 05:06:28;;;;;;;8.75;4.05;;;14.00;99.90;;;;;;4912726;29;20120;-33
2023/07/18 05:08:54;;;;;;;7.32;4.38;;;14.00;99.90;;;;;;4915985;29;20036;-33
2023/07/18 05:11:20;;;;;;;10.00;4.43;;;14.10;99.90;;;;;;4916672;29;20036;-34
2023/07/18 05:13:46;;;;;;;7.22;3.97;;;14.10;99.90;;;;;;4894173;29;20088;-33
2023/07/18 05:16:11;;;;;;;8.63;4.68;;;14.20;99.90;;;;;;4916143;29;20040;-33
2023/07/18 05:18:37;;;;;;;9.20;4.60;;;14.20;99.90;;;;;;4912321;29;20052;-33
2023/07/18 05:21:03;;;;;;;7.97;4.40;;;14.20;99.90;;;;;;4899655;29;20230;-34
2023/07/18 05:23:28;;;;;;;7.63;4.15;;;14.20;99.90;;;;;;4892489;29;20084;-33
2023/07/18 05:25:56;;;;;;;9.93;4.00;;;14.20;99.90;;;;;;4906102;29;20088;-34
2023/07/18 05:28:22;;;;;;;6.25;3.78;;;14.30;99.90;;;;;;4911458;29;20251;-34
2023/07/18 05:30:49;;;;;;;5.35;3.88;;;14.30;99.90;;;;;;4911917;29;20453;-33
2023/07/18 05:33:14;;;;;;;7.20;3.97;;;14.30;99.90;;;;;;4895237;29;20048;-34
2023/07/18 05:35:40;;;;;;;9.20;4.45;;;14.40;99.90;;;;;;4914851;29;20056;-33
2023/07/18 05:38:06;;;;;;;9.02;4.35;;;14.50;99.90;;;;;;4908997;29;20034;-33
2023/07/18 05:40:32;;;;;;;7.07;4.10;;;14.60;99.90;;;;;;4905260;29;20189;-33
2023/07/18 05:42:58;;;;;;;8.32;4.68;;;14.70;99.90;;;;;;4909237;29;20143;-32
2023/07/18 05:45:24;;;;;;;7.63;4.15;;;14.70;99.90;;;;;;4910388;29;20040;-33
2023/07/18 05:47:50;;;;;;;6.97;4.32;;;14.80;99.90;;;;;;4903984;29;20184;-33
2023/07/18 05:50:16;;;;;;;6.07;3.72;;;14.90;99.90;;;;;;4882661;29;20028;-33
2023/07/18 05:52:42;;;;;;;8.55;4.32;;;14.90;99.90;;;;;;4890340;29;20219;-33
2023/07/18 05:55:08;;;;;;;8.07;3.92;;;14.90;99.90;;;;;;4890155;29;20126;-33
2023/07/18 05:57:34;;;;;;;9.98;4.13;;;14.90;99.90;;;;;;4865073;29;20115;-33
2023/07/18 06:00:00;;;;;;;9.25;4.25;;;14.90;99.90;;;;;;4906566;29;20043;-33
2023/07/18 06:02:26;;;;;;;7.70;4.00;;;15.00;99.90;;;;;;4905406;29;20378;-34
2023/07/18 06:04:52;;;;;;;8.75;4.03;;;15.10;99.90;;;;;;4905328;29;20116;-34
2023/07/18 06:07:18;;;;;;;8.98;3.65;;;15.20;99.90;;;;;;4910216;29;20040;-33
2023/07/18 06:09:44;;;;;;;7.97;4.45;;;15.30;99.90;;;;;;4913382;29;20190;-33
2023/07/18 06:12:13;;;;;;;7.93;3.95;;;15.40;99.90;;;;;;4892490;29;20044;-33
2023/07/18 06:14:38;;;;;;;7.80;3.95;;;15.60;99.90;;;;;;4892910;29;20063;-33
2023/07/18 06:17:04;;;;;;;8.07;3.97;;;15.70;99.90;;;;;;4888354;29;20052;-33
2023/07/18 06:19:30;;;;;;;7.53;3.60;;;15.90;99.90;;;;;;4909848;29;20480;-34
2023/07/18 06:21:57;;;;;;;7.85;3.38;;;16.00;99.90;;;;;;4911369;29;20127;-34
2023/07/18 06:24:24;;;;;;;8.20;3.60;;;16.00;99.90;;;;;;4913168;29;20063;-34
2023/07/18 06:26:50;;;;;;;6.85;4.00;;;16.10;99.90;;;;;;4908787;29;20059;-33
2023/07/18 06:29:17;;;;;;;8.02;3.90;;;16.10;99.90;;;;;;4919040;29;20032;-33
2023/07/18 06:31:44;;;;;;;7.57;3.90;;;16.20;99.90;;;;;;4908622;29;20111;-33
2023/07/18 06:34:11;;;;;;;6.03;3.60;;;16.30;99.90;;;;;;4899538;29;20402;-34
2023/07/18 06:36:37;;;;;;;6.18;3.63;;;16.40;99.90;;;;;;4908638;29;20044;-34
2023/07/18 06:39:05;;;;;;;11.57;3.78;;;16.50;99.90;;;;;;4903686;29;20040;-34
2023/07/18 06:41:34;;;;;;;8.18;3.60;;;16.50;99.90;;;;;;4914580;29;20046;-34
2023/07/18 06:44:00;;;;;;;8.63;3.78;;;16.60;99.90;;;;;;4914799;29;20100;-34
2023/07/18 06:46:26;;;;;;;9.38;3.85;;;16.80;99.90;;;;;;4912658;29;20040;-34
2023/07/18 06:48:52;;;;;;;6.00;3.67;;;16.90;99.90;;;;;;4914501;29;20556;-33
2023/07/18 06:51:21;;;;;;;6.75;4.05;;;17.00;99.90;;;;;;4895986;29;20434;-33
2023/07/18 06:53:46;;;;;;;6.88;3.55;;;17.20;99.90;;;;;;4901633;29;20119;-34
2023/07/18 06:56:12;;;;;;;6.65;3.70;;;17.30;99.90;;;;;;4900029;29;20176;-37
2023/07/18 06:58:38;;;;;;;8.55;3.90;;;17.30;99.90;;;;;;4906496;29;20045;-33
2023/07/18 07:01:04;;;;;;;10.70;3.78;;;17.40;99.90;;;;;;4909027;29;20157;-34
2023/07/18 07:03:30;;;;;;;11.57;4.13;;;17.40;99.90;;;;;;4916207;29;20282;-34
2023/07/18 07:05:58;;;;;;;11.70;4.05;;;17.30;99.90;;;;;;4915501;29;20036;-34
2023/07/18 07:08:24;;;;;;;7.38;3.22;;;17.30;99.90;;;;;;4911268;29;20102;-33
2023/07/18 07:11:02;;;;;;;10.43;4.00;;;17.40;99.90;;;;;;4917699;29;20493;-34
2023/07/18 07:13:27;;;;;;;11.38;4.35;;;17.60;99.90;;;;;;4914064;29;20048;-34
2023/07/18 07:15:53;;;;;;;7.75;3.65;;;17.70;99.90;;;;;;4899741;29;20035;-34
2023/07/18 07:18:19;;;;;;;8.52;3.88;;;17.80;99.90;;;;;;4907062;29;20047;-34
2023/07/18 07:20:45;;;;;;;7.13;3.72;;;17.90;99.90;;;;;;4913641;29;20044;-33
2023/07/18 07:23:10;;;;;;;11.13;4.15;;;18.00;99.90;;;;;;4919927;29;20036;-34
2023/07/18 07:25:36;;;;;;;8.73;3.95;;;18.20;99.90;;;;;;4914014;29;20043;-34
2023/07/18 07:28:02;;;;;;;9.48;3.60;;;18.30;99.90;;;;;;4898100;29;20099;-34
2023/07/18 07:30:28;;;;;;;9.23;3.97;;;18.50;99.90;;;;;;4913954;29;20052;-37
2023/07/18 07:32:53;;;;;;;8.45;4.05;;;18.50;99.90;;;;;;4898859;29;20044;-32
2023/07/18 07:35:23;;;;;;;7.68;3.50;;;18.70;99.90;;;;;;4915122;29;20122;-34
2023/07/18 07:37:52;;;;;;;9.73;3.90;;;18.80;99.90;;;;;;4904687;29;20132;-35
2023/07/18 07:40:19;;;;;;;8.13;3.38;;;19.00;99.90;;;;;;4908392;29;20123;-34
2023/07/18 07:42:46;;;;;;;8.90;3.47;;;19.10;99.90;;;;;;4915043;29;20048;-35
2023/07/18 07:45:13;;;;;;;14.93;3.83;;;19.20;99.90;;;;;;4908614;29;20033;-34
2023/07/18 07:47:39;;;;;;;8.65;3.65;;;19.40;99.90;;;;;;4914344;29;20036;-36
2023/07/18 07:50:07;;;;;;;10.18;4.45;;;19.50;99.90;;;;;;4917538;29;20032;-36
2023/07/18 07:52:34;;;;;;;9.88;4.15;;;19.60;99.90;;;;;;4918606;29;20039;-36
2023/07/18 07:55:00;;;;;;;9.82;4.22;;;19.90;99.90;;;;;;4913276;29;20379;-38
2023/07/18 07:57:25;;;;;;;9.13;3.97;;;20.00;99.90;;;;;;4906516;29;20064;-36
2023/07/18 07:59:51;;;;;;;10.90;3.85;;;20.20;99.90;;;;;;4905964;29;20493;-36
2023/07/18 08:02:20;;;;;;;11.48;4.28;;;20.40;99.90;;;;;;4916652;29;20128;-35
2023/07/18 08:04:48;;;;;;;9.27;3.97;;;20.50;99.90;;;;;;4914426;29;20040;-36
2023/07/18 08:07:15;;;;;;;11.75;4.32;;;20.50;99.90;;;;;;4912567;29;20036;-36
2023/07/18 08:09:41;;;;;;;9.88;4.22;;;20.60;99.90;;;;;;4912859;29;20040;-35
2023/07/18 08:12:08;;;;;;;9.07;4.05;;;20.70;99.90;;;;;;4921070;29;20035;-36
2023/07/18 08:14:39;;;;;;;9.63;4.10;;;20.80;99.90;;;;;;4915436;29;20051;-38
2023/07/18 08:17:08;;;;;;;10.15;4.10;;;20.80;99.90;;;;;;4913534;29;20075;-36
2023/07/18 08:19:34;;;;;;;10.45;3.85;;;21.00;99.90;;;;;;4913152;29;20084;-36
2023/07/18 08:22:03;;;;;;;11.15;4.35;;;21.20;99.90;;;;;;4918745;29;20032;-36
2023/07/18 08:24:30;;;;;;;9.85;3.78;;;21.30;99.90;;;;;;4897402;29;20060;-37
2023/07/18 08:26:56;;;;;;;8.85;3.92;;;21.50;99.90;;;;;;4902018;29;20530;-34
2023/07/18 08:29:28;;;;;;;9.73;3.55;;;21.70;99.90;;;;;;4907594;29;20036;-34
2023/07/18 08:31:56;;;;;;;7.32;3.63;;;21.70;99.90;;;;;;4909034;29;20040;-34
2023/07/18 08:34:22;;;;;;;10.48;3.50;;;21.60;99.90;;;;;;4910859;29;20036;-34
2023/07/18 08:36:48;;;;;;;8.10;3.45;;;21.50;99.90;;;;;;4912648;29;20051;-33
2023/07/18 08:39:15;;;;;;;9.20;3.40;;;21.60;99.90;;;;;;4913345;29;20498;-34
2023/07/18 08:41:45;;;;;;;6.00;3.10;;;21.50;99.90;;;;;;4911830;29;20100;-36
2023/07/18 08:44:15;;;;;;;8.55;2.85;;;21.60;99.90;;;;;;4908144;29;20040;-36
2023/07/18 08:46:47;;;;;;;10.73;2.85;;;21.80;99.90;;;;;;4907371;29;20032;-37
2023/07/18 08:49:14;;;;;;;8.93;2.97;;;22.10;99.90;;;;;;4896498;29;20394;-38
2023/07/18 08:51:41;;;;;;;6.47;2.33;;;22.20;99.90;;;;;;4912869;29;20039;-36
2023/07/18 08:54:07;;;;;;;11.43;2.63;;;22.30;99.90;;;;;;4907833;29;20040;-38
2023/07/18 08:56:33;;;;;;;5.57;2.30;;;22.40;99.90;;;;;;4890753;29;20552;-39
2023/07/18 08:59:00;;;;;;;4.88;2.22;;;22.40;99.90;;;;;;4907076;29;20116;-36
2023/07/18 09:01:26;;;;;;;7.03;2.10;;;22.60;99.90;;;;;;4900409;29;20040;-36
2023/07/18 09:03:55;;;;;;;6.45;2.10;;;22.70;99.90;;;;;;4903826;29;20558;-37
2023/07/18 09:06:21;;;;;;;6.85;2.28;;;22.90;99.90;;;;;;4906360;29;20039;-36
2023/07/18 09:08:48;;;;;;;7.70;1.63;;;23.20;99.90;;;;;;4892599;29;20127;-36
2023/07/18 09:11:18;;;;;;;7.13;1.95;;;23.30;99.90;;;;;;4902643;29;20075;-36
2023/07/18 09:13:44;;;;;;;6.82;2.80;;;23.40;99.90;;;;;;4909565;29;20522;-37
2023/07/18 09:16:14;;;;;;;7.93;3.13;;;23.30;99.90;;;;;;4905973;29;20119;-37
2023/07/18 09:18:53;;;;;;;3.80;1.70;;;23.50;99.90;;;;;;4910971;29;20055;-37
2023/07/18 09:21:20;;;;;;;8.98;2.20;;;23.70;99.90;;;;;;4915625;29;20399;-33
2023/07/18 09:23:47;;;;;;;4.97;2.15;;;24.00;99.90;;;;;;4916460;29;20131;-36
2023/07/18 09:26:15;;;;;;;3.95;1.75;;;24.10;99.90;;;;;;4912311;29;20398;-33
2023/07/18 09:28:41;;;;;;;9.70;2.20;;;24.20;99.90;;;;;;4914375;29;20501;-34
2023/07/18 09:31:21;;;;;;;3.25;1.30;;;24.40;99.90;;;;;;4912091;29;20044;-34
2023/07/18 09:33:49;;;;;;;3.20;1.40;;;24.30;99.90;;;;;;4911172;29;20123;-34
2023/07/18 09:36:22;;;;;;;2.97;1.30;;;24.50;99.90;;;;;;4918765;29;20044;-34
2023/07/18 09:38:51;;;;;;;4.07;1.88;;;24.50;96.40;;;;;;4911615;29;20135;-34
2023/07/18 09:41:22;;;;;;;3.58;1.45;;;24.50;99.90;;;;;;4918065;29;20044;-35
2023/07/18 09:43:48;;;;;;;3.55;1.40;;;24.50;98.80;;;;;;4911177;29;20087;-34
2023/07/18 09:46:15;;;;;;;4.93;1.73;;;24.70;99.10;;;;;;4893003;29;20088;-34
2023/07/18 09:48:43;;;;;;;3.55;1.90;;;24.60;97.00;;;;;;4911101;29;20028;-35
2023/07/18 09:51:15;;;;;;;3.22;1.73;;;24.60;97.30;;;;;;4903064;29;20037;-33
2023/07/18 09:53:46;;;;;;;3.67;1.40;;;24.60;94.90;;;;;;4917887;29;20044;-34
2023/07/18 09:56:14;;;;;;;3.92;1.13;;;24.70;94.00;;;;;;4913144;29;20401;-34
2023/07/18 09:58:42;;;;;;;2.50;1.10;;;24.90;93.40;;;;;;4924818;29;20043;-37
2023/07/18 10:01:12;;;;;;;2.92;1.13;;;25.00;93.00;;;;;;4911807;29;20036;-35
2023/07/18 10:03:39;;;;;;;2.13;1.25;;;24.90;90.20;;;;;;4912400;29;20502;-35
2023/07/18 10:06:10;;;;;;;3.25;0.90;;;24.90;87.40;;;;;;4910944;29;20051;-34
2023/07/18 10:08:41;;;;;;;2.92;1.35;;;25.00;83.80;;;;;;4912405;29;20472;-34
2023/07/18 10:11:08;;;;;;;2.90;1.10;;;25.20;85.10;;;;;;4911576;29;20044;-34
2023/07/18 10:13:43;;;;;;;3.83;1.45;;;25.50;86.20;;;;;;4895516;29;20055;-34
2023/07/18 10:16:12;;;;;;;2.40;1.00;;;25.80;81.60;;;;;;4894639;29;20052;-34
2023/07/18 10:18:49;;;;;;;3.20;1.33;;;25.90;81.40;;;;;;4915657;29;20099;-35
2023/07/18 10:21:28;;;;;;;2.78;1.40;;;26.10;77.20;;;;;;4909671;29;20056;-33
2023/07/18 10:23:57;;;;;;;2.70;1.00;;;26.20;74.60;;;;;;4912620;29;20037;-32
2023/07/18 10:26:33;;;;;;;2.83;1.10;;;26.30;74.70;;;;;;4913037;29;20059;-32
2023/07/18 10:29:03;;;;;;;4.18;1.23;;;26.50;71.40;;;;;;4908661;29;20044;-33
2023/07/18 10:31:37;;;;;;;2.97;0.82;;;26.60;70.60;;;;;;4898739;29;20071;-33
2023/07/18 10:34:15;;;;;;;2.33;0.80;;;26.50;67.10;;;;;;4925415;29;20110;-33
2023/07/18 10:37:00;;;;;;;2.65;1.38;;;26.40;67.40;;;;;;4921736;29;20390;-33
2023/07/18 10:39:35;;;;;;;2.00;1.00;;;26.50;66.20;;;;;;4912548;29;20371;-32
2023/07/18 10:42:20;;;;;;;4.00;1.00;;;26.50;65.10;;;;;;4910566;29;20564;-33
2023/07/18 10:44:57;;;;;;;2.45;1.00;;;26.60;67.70;;;;;;4913198;29;20102;-32
2023/07/18 10:47:23;;;;;;;3.00;1.00;;;26.60;68.30;;;;;;4915486;29;20040;-33
2023/07/18 10:49:49;;;;;;;3.72;1.08;;;26.60;67.50;;;;;;4907295;29;20871;-32
2023/07/18 10:52:16;;;;;;;3.55;1.05;;;26.50;64.30;;;;;;4921309;29;20036;-32
2023/07/18 10:54:58;;;;;;;3.58;1.20;;;26.70;64.00;;;;;;4915514;29;20051;-33
2023/07/18 10:57:28;;;;;;;3.67;1.05;;;26.80;63.40;;;;;;4895916;29;20113;-31
2023/07/18 10:59:56;;;;;;;2.67;1.00;;;26.90;65.50;;;;;;4898538;29;20106;-33
2023/07/18 11:02:23;;;;;;;2.38;0.90;;;27.00;63.70;;;;;;4899708;29;20066;-33
2023/07/18 11:04:51;;;;;;;2.75;1.10;;;26.80;61.50;;;;;;4915459;29;20058;-34
2023/07/18 11:07:17;;;;;;;3.97;0.88;;;27.00;62.40;;;;;;4913100;29;20095;-34
2023/07/18 11:09:43;;;;;;;3.55;1.15;;;27.20;63.10;;;;;;4904053;29;20509;-33
2023/07/18 11:12:17;;;;;;;3.13;1.20;;;27.20;60.70;;;;;;4913880;29;20040;-33
2023/07/18 11:14:43;;;;;;;3.42;1.00;;;27.30;59.50;;;;;;4911065;29;20482;-34
2023/07/18 11:17:19;;;;;;;3.22;1.33;;;27.30;60.50;;;;;;4918558;29;20048;-34
2023/07/18 11:19:46;;;;;;;2.75;1.10;;;27.40;59.40;;;;;;4912818;29;20090;-33
2023/07/18 11:22:16;;;;;;;2.00;1.10;;;27.40;59.90;;;;;;4913435;29;20446;-33
2023/07/18 11:24:48;;;;;;;2.10;0.95;;;27.60;60.00;;;;;;4910753;29;20045;-34
2023/07/18 11:27:20;;;;;;;2.15;1.00;;;27.70;57.90;;;;;;4913612;29;20082;-33
2023/07/18 11:30:08;;;;;;;2.28;1.20;;;27.80;56.60;;;;;;4906793;29;20135;-33
2023/07/18 11:32:40;;;;;;;1.90;1.30;;;27.80;57.40;;;;;;4910923;29;20044;-34
2023/07/18 11:35:20;;;;;;;3.10;1.10;;;28.10;58.40;;;;;;4908709;29;20032;-34
2023/07/18 11:37:48;;;;;;;2.58;0.95;;;28.20;56.80;;;;;;4912971;29;20119;-34
2023/07/18 11:40:26;;;;;;;1.58;1.10;;;28.20;57.80;;;;;;4908851;29;20044;-34
2023/07/18 11:42:57;;;;;;;1.58;0.93;;;28.50;55.20;;;;;;4911062;29;20140;-33
2023/07/18 11:45:25;;;;;;;2.10;1.00;;;28.70;56.80;;;;;;4912677;29;20040;-33
2023/07/18 11:47:56;;;;;;;3.22;1.10;;;28.60;56.30;;;;;;4910036;29;20487;-33
2023/07/18 11:50:27;;;;;;;2.17;0.98;;;28.60;55.30;;;;;;4910090;29;20036;-33
2023/07/18 11:52:53;;;;;;;2.60;1.02;;;28.80;56.80;;;;;;4916405;29;20418;-33
2023/07/18 11:55:21;;;;;;;2.00;0.93;;;29.00;55.00;;;;;;4911173;29;20043;-34
2023/07/18 11:57:48;;;;;;;1.73;0.80;;;29.20;54.80;;;;;;4911413;29;20046;-33
2023/07/18 12:00:15;;;;;;;2.13;1.00;;;29.30;54.90;;;;;;4913335;29;20104;-34
2023/07/18 12:02:45;;;;;;;2.60;1.10;;;29.20;53.20;;;;;;4909304;29;20032;-34
2023/07/18 12:05:13;;;;;;;3.70;1.00;;;28.90;52.50;;;;;;4900347;29;20123;-34
2023/07/18 12:07:40;;;;;;;1.98;0.88;;;28.70;51.90;;;;;;4908893;29;20124;-34
2023/07/18 12:10:06;;;;;;;1.70;0.90;;;28.70;53.60;;;;;;4913697;29;20162;-34
2023/07/18 12:12:36;;;;;;;2.95;1.00;;;28.80;52.90;;;;;;4912888;29;20421;-34
2023/07/18 12:15:02;;;;;;;2.72;0.90;;;29.20;53.00;;;;;;4908941;29;20044;-33
2023/07/18 12:17:34;;;;;;;1.77;0.82;;;28.90;51.50;;;;;;4902445;29;20040;-33
2023/07/18 12:19:59;;;;;;;1.70;0.98;;;28.30;51.10;;;;;;4911448;29;20048;-34
2023/07/18 12:22:25;;;;;;;2.45;1.00;;;27.80;51.90;;;;;;4895645;29;20059;-34
2023/07/18 12:24:51;;;;;;;0.98;0.60;;;27.70;52.70;;;;;;4916201;29;20083;-34
2023/07/18 12:27:17;;;;;;;1.75;1.10;;;27.60;52.50;;;;;;4906973;29;20558;-34
2023/07/18 12:29:44;;;;;;;2.50;1.05;;;27.80;53.20;;;;;;4911180;29;20047;-35
2023/07/18 12:32:10;;;;;;;2.08;0.82;;;28.20;52.20;;;;;;4895113;29;20040;-34
2023/07/18 12:34:39;;;;;;;1.65;0.80;;;28.60;50.80;;;;;;4913904;29;20409;-34
2023/07/18 12:37:09;;;;;;;1.63;0.70;;;28.70;51.70;;;;;;4913071;29;20084;-37
2023/07/18 12:39:35;;;;;;;1.77;0.70;;;29.10;52.20;;;;;;4912510;29;20103;-34
2023/07/18 12:42:01;;;;;;;1.85;0.77;;;29.30;50.20;;;;;;4912590;29;20494;-34
2023/07/18 12:44:44;;;;;;;1.52;0.77;;;29.10;50.40;;;;;;4911896;29;20048;-34
2023/07/18 12:47:10;;;;;;;1.20;0.70;;;28.80;50.60;;;;;;4906306;29;20032;-34